sensor_id;sensor_type;location;lat;lon;timestamp;P1;durP1;ratioP1;P2;durP2;ratioP2
6434;SDS011;3250;42.694;23.278;2022-08-30T00:01:26;29.90;;;20.40;;
6434;SDS011;3250;42.694;23.278;2022-08-30T00:03:53;23.92;;;16.88;;
6434;SDS011;3250;42.694;23.278;2022-08-30T00:06:19;27.45;;;16.92;;
6434;SDS011;3250;42.694;23.278;2022-08-30T00:08:46;23.33;;;16.13;;
6434;SDS011;3250;42.694;23.278;2022-08-30T00:11:18;22.60;;;15.10;;
6434;SDS011;3250;42.694;23.278;2022-08-30T00:13:48;19.80;;;14.02;;
6434;SDS011;3250;42.694;23.278;2022-08-30T00:16:16;18.60;;;13.65;;
6434;SDS011;3250;42.694;23.278;2022-08-30T00:18:43;40.60;;;14.25;;
6434;SDS011;3250;42.694;23.278;2022-08-30T00:21:09;17.02;;;12.32;;
6434;SDS011;3250;42.694;23.278;2022-08-30T00:23:35;17.50;;;12.13;;
6434;SDS011;3250;42.694;23.278;2022-08-30T00:26:01;19.17;;;13.27;;
6434;SDS011;3250;42.694;23.278;2022-08-30T00:28:27;19.27;;;11.68;;
6434;SDS011;3250;42.694;23.278;2022-08-30T00:30:54;22.17;;;12.00;;
6434;SDS011;3250;42.694;23.278;2022-08-30T00:33:20;27.67;;;12.23;;
6434;SDS011;3250;42.694;23.278;2022-08-30T00:35:46;20.27;;;11.10;;
6434;SDS011;3250;42.694;23.278;2022-08-30T00:38:12;20.00;;;10.48;;
6434;SDS011;3250;42.694;23.278;2022-08-30T00:40:38;14.93;;;11.00;;
6434;SDS011;3250;42.694;23.278;2022-08-30T00:43:06;24.65;;;15.82;;
6434;SDS011;3250;42.694;23.278;2022-08-30T00:45:39;24.33;;;16.02;;
6434;SDS011;3250;42.694;23.278;2022-08-30T00:48:05;18.38;;;12.07;;
6434;SDS011;3250;42.694;23.278;2022-08-30T00:50:48;32.45;;;18.45;;
6434;SDS011;3250;42.694;23.278;2022-08-30T00:53:24;25.30;;;15.68;;
6434;SDS011;3250;42.694;23.278;2022-08-30T00:55:53;19.80;;;13.73;;
6434;SDS011;3250;42.694;23.278;2022-08-30T00:58:21;21.45;;;13.70;;
6434;SDS011;3250;42.694;23.278;2022-08-30T01:00:52;20.10;;;13.82;;
6434;SDS011;3250;42.694;23.278;2022-08-30T01:03:21;21.42;;;13.95;;
6434;SDS011;3250;42.694;23.278;2022-08-30T01:05:49;21.95;;;14.30;;
6434;SDS011;3250;42.694;23.278;2022-08-30T01:08:15;19.77;;;11.88;;
6434;SDS011;3250;42.694;23.278;2022-08-30T01:10:41;20.02;;;11.02;;
6434;SDS011;3250;42.694;23.278;2022-08-30T01:13:08;20.38;;;13.38;;
6434;SDS011;3250;42.694;23.278;2022-08-30T01:15:37;18.55;;;12.52;;
6434;SDS011;3250;42.694;23.278;2022-08-30T01:18:03;22.23;;;13.57;;
6434;SDS011;3250;42.694;23.278;2022-08-30T01:20:31;18.65;;;12.18;;
6434;SDS011;3250;42.694;23.278;2022-08-30T01:23:04;18.40;;;12.30;;
6434;SDS011;3250;42.694;23.278;2022-08-30T01:25:34;18.45;;;12.45;;
6434;SDS011;3250;42.694;23.278;2022-08-30T01:28:05;21.33;;;12.98;;
6434;SDS011;3250;42.694;23.278;2022-08-30T01:30:33;20.88;;;12.90;;
6434;SDS011;3250;42.694;23.278;2022-08-30T01:33:00;16.95;;;12.32;;
6434;SDS011;3250;42.694;23.278;2022-08-30T01:35:28;22.67;;;13.48;;
6434;SDS011;3250;42.694;23.278;2022-08-30T01:37:59;24.17;;;13.60;;
6434;SDS011;3250;42.694;23.278;2022-08-30T01:40:25;18.88;;;12.98;;
6434;SDS011;3250;42.694;23.278;2022-08-30T01:42:50;18.20;;;12.50;;
6434;SDS011;3250;42.694;23.278;2022-08-30T01:45:16;15.70;;;11.93;;
6434;SDS011;3250;42.694;23.278;2022-08-30T01:47:41;18.80;;;11.85;;
6434;SDS011;3250;42.694;23.278;2022-08-30T01:50:07;15.02;;;11.50;;
6434;SDS011;3250;42.694;23.278;2022-08-30T01:52:33;16.77;;;10.75;;
6434;SDS011;3250;42.694;23.278;2022-08-30T01:54:59;21.05;;;11.18;;
6434;SDS011;3250;42.694;23.278;2022-08-30T01:57:26;20.02;;;12.38;;
6434;SDS011;3250;42.694;23.278;2022-08-30T01:59:52;15.60;;;11.45;;
6434;SDS011;3250;42.694;23.278;2022-08-30T02:02:19;16.25;;;11.07;;
6434;SDS011;3250;42.694;23.278;2022-08-30T02:04:47;17.05;;;11.85;;
6434;SDS011;3250;42.694;23.278;2022-08-30T02:07:13;17.70;;;12.43;;
6434;SDS011;3250;42.694;23.278;2022-08-30T02:09:39;19.75;;;12.32;;
6434;SDS011;3250;42.694;23.278;2022-08-30T02:12:05;21.60;;;13.65;;
6434;SDS011;3250;42.694;23.278;2022-08-30T02:14:32;17.70;;;11.27;;
6434;SDS011;3250;42.694;23.278;2022-08-30T02:17:01;16.70;;;12.55;;
6434;SDS011;3250;42.694;23.278;2022-08-30T02:19:28;16.40;;;11.32;;
6434;SDS011;3250;42.694;23.278;2022-08-30T02:21:54;20.00;;;11.73;;
6434;SDS011;3250;42.694;23.278;2022-08-30T02:24:20;20.80;;;12.60;;
6434;SDS011;3250;42.694;23.278;2022-08-30T02:26:45;17.48;;;11.57;;
6434;SDS011;3250;42.694;23.278;2022-08-30T02:29:11;14.82;;;11.00;;
6434;SDS011;3250;42.694;23.278;2022-08-30T02:31:36;18.48;;;11.77;;
6434;SDS011;3250;42.694;23.278;2022-08-30T02:34:02;13.50;;;10.38;;
6434;SDS011;3250;42.694;23.278;2022-08-30T02:36:28;13.93;;;10.30;;
6434;SDS011;3250;42.694;23.278;2022-08-30T02:38:54;13.32;;;10.82;;
6434;SDS011;3250;42.694;23.278;2022-08-30T02:41:19;12.68;;;9.77;;
6434;SDS011;3250;42.694;23.278;2022-08-30T02:43:47;16.13;;;10.02;;
6434;SDS011;3250;42.694;23.278;2022-08-30T02:46:13;22.48;;;11.40;;
6434;SDS011;3250;42.694;23.278;2022-08-30T02:48:39;13.95;;;10.32;;
6434;SDS011;3250;42.694;23.278;2022-08-30T02:51:06;23.70;;;10.48;;
6434;SDS011;3250;42.694;23.278;2022-08-30T02:53:34;13.75;;;9.65;;
6434;SDS011;3250;42.694;23.278;2022-08-30T02:55:59;16.65;;;9.70;;
6434;SDS011;3250;42.694;23.278;2022-08-30T02:58:25;18.30;;;11.18;;
6434;SDS011;3250;42.694;23.278;2022-08-30T03:00:51;16.92;;;10.23;;
6434;SDS011;3250;42.694;23.278;2022-08-30T03:03:16;15.20;;;9.90;;
6434;SDS011;3250;42.694;23.278;2022-08-30T03:05:42;18.67;;;9.50;;
6434;SDS011;3250;42.694;23.278;2022-08-30T03:08:07;16.42;;;9.80;;
6434;SDS011;3250;42.694;23.278;2022-08-30T03:10:33;15.90;;;9.30;;
6434;SDS011;3250;42.694;23.278;2022-08-30T03:12:59;13.88;;;9.77;;
6434;SDS011;3250;42.694;23.278;2022-08-30T03:15:24;12.95;;;10.15;;
6434;SDS011;3250;42.694;23.278;2022-08-30T03:17:51;13.18;;;9.73;;
6434;SDS011;3250;42.694;23.278;2022-08-30T03:20:18;14.43;;;9.55;;
6434;SDS011;3250;42.694;23.278;2022-08-30T03:22:45;19.58;;;11.80;;
6434;SDS011;3250;42.694;23.278;2022-08-30T03:25:10;17.63;;;11.68;;
6434;SDS011;3250;42.694;23.278;2022-08-30T03:27:36;26.67;;;16.50;;
6434;SDS011;3250;42.694;23.278;2022-08-30T03:30:02;18.55;;;12.40;;
6434;SDS011;3250;42.694;23.278;2022-08-30T03:32:29;27.60;;;17.73;;
6434;SDS011;3250;42.694;23.278;2022-08-30T03:34:54;26.33;;;13.25;;
6434;SDS011;3250;42.694;23.278;2022-08-30T03:37:19;27.60;;;10.23;;
6434;SDS011;3250;42.694;23.278;2022-08-30T03:39:45;22.80;;;15.60;;
6434;SDS011;3250;42.694;23.278;2022-08-30T03:42:11;35.97;;;19.05;;
6434;SDS011;3250;42.694;23.278;2022-08-30T03:44:36;30.42;;;18.08;;
6434;SDS011;3250;42.694;23.278;2022-08-30T03:47:02;30.58;;;18.73;;
6434;SDS011;3250;42.694;23.278;2022-08-30T03:49:29;24.38;;;16.05;;
6434;SDS011;3250;42.694;23.278;2022-08-30T03:51:55;19.35;;;13.50;;
6434;SDS011;3250;42.694;23.278;2022-08-30T03:54:21;23.25;;;15.38;;
6434;SDS011;3250;42.694;23.278;2022-08-30T03:56:46;15.43;;;11.88;;
6434;SDS011;3250;42.694;23.278;2022-08-30T03:59:11;50.20;;;26.88;;
6434;SDS011;3250;42.694;23.278;2022-08-30T04:01:37;20.00;;;14.88;;
6434;SDS011;3250;42.694;23.278;2022-08-30T04:04:03;16.02;;;11.82;;
6434;SDS011;3250;42.694;23.278;2022-08-30T04:06:28;21.25;;;13.30;;
6434;SDS011;3250;42.694;23.278;2022-08-30T04:08:54;23.30;;;14.88;;
6434;SDS011;3250;42.694;23.278;2022-08-30T04:11:19;20.25;;;10.95;;
6434;SDS011;3250;42.694;23.278;2022-08-30T04:13:45;20.30;;;9.85;;
6434;SDS011;3250;42.694;23.278;2022-08-30T04:16:13;23.80;;;14.57;;
6434;SDS011;3250;42.694;23.278;2022-08-30T04:18:39;20.38;;;13.95;;
6434;SDS011;3250;42.694;23.278;2022-08-30T04:21:04;16.92;;;10.18;;
6434;SDS011;3250;42.694;23.278;2022-08-30T04:23:30;22.77;;;15.43;;
6434;SDS011;3250;42.694;23.278;2022-08-30T04:25:55;23.05;;;14.23;;
6434;SDS011;3250;42.694;23.278;2022-08-30T04:28:21;17.70;;;11.20;;
6434;SDS011;3250;42.694;23.278;2022-08-30T04:30:47;18.15;;;11.55;;
6434;SDS011;3250;42.694;23.278;2022-08-30T04:33:13;11.93;;;10.50;;
6434;SDS011;3250;42.694;23.278;2022-08-30T04:35:40;22.83;;;11.95;;
6434;SDS011;3250;42.694;23.278;2022-08-30T04:38:14;20.05;;;12.20;;
6434;SDS011;3250;42.694;23.278;2022-08-30T04:40:40;18.42;;;11.48;;
6434;SDS011;3250;42.694;23.278;2022-08-30T04:43:07;19.00;;;11.32;;
6434;SDS011;3250;42.694;23.278;2022-08-30T04:45:33;14.80;;;10.80;;
6434;SDS011;3250;42.694;23.278;2022-08-30T04:47:58;19.25;;;10.60;;
6434;SDS011;3250;42.694;23.278;2022-08-30T04:50:23;20.40;;;11.52;;
6434;SDS011;3250;42.694;23.278;2022-08-30T04:52:49;18.95;;;12.07;;
6434;SDS011;3250;42.694;23.278;2022-08-30T04:55:15;20.90;;;11.63;;
6434;SDS011;3250;42.694;23.278;2022-08-30T04:57:41;24.42;;;13.07;;
6434;SDS011;3250;42.694;23.278;2022-08-30T05:00:08;29.70;;;14.23;;
6434;SDS011;3250;42.694;23.278;2022-08-30T05:02:37;18.20;;;12.02;;
6434;SDS011;3250;42.694;23.278;2022-08-30T05:05:03;19.75;;;12.23;;
6434;SDS011;3250;42.694;23.278;2022-08-30T05:07:48;16.33;;;11.93;;
6434;SDS011;3250;42.694;23.278;2022-08-30T05:10:13;26.85;;;11.25;;
6434;SDS011;3250;42.694;23.278;2022-08-30T05:12:39;21.33;;;11.10;;
6434;SDS011;3250;42.694;23.278;2022-08-30T05:15:05;20.67;;;11.60;;
6434;SDS011;3250;42.694;23.278;2022-08-30T05:17:31;18.23;;;10.95;;
6434;SDS011;3250;42.694;23.278;2022-08-30T05:19:59;17.48;;;10.55;;
6434;SDS011;3250;42.694;23.278;2022-08-30T05:22:26;17.48;;;10.95;;
6434;SDS011;3250;42.694;23.278;2022-08-30T05:24:51;24.75;;;11.05;;
6434;SDS011;3250;42.694;23.278;2022-08-30T05:27:17;20.65;;;13.10;;
6434;SDS011;3250;42.694;23.278;2022-08-30T05:29:42;26.10;;;15.88;;
6434;SDS011;3250;42.694;23.278;2022-08-30T05:32:08;26.13;;;17.75;;
6434;SDS011;3250;42.694;23.278;2022-08-30T05:34:33;23.27;;;14.68;;
6434;SDS011;3250;42.694;23.278;2022-08-30T05:36:59;19.63;;;11.93;;
6434;SDS011;3250;42.694;23.278;2022-08-30T05:39:26;25.45;;;14.35;;
6434;SDS011;3250;42.694;23.278;2022-08-30T05:41:54;20.02;;;14.10;;
6434;SDS011;3250;42.694;23.278;2022-08-30T05:44:21;20.85;;;12.20;;
6434;SDS011;3250;42.694;23.278;2022-08-30T05:46:46;19.42;;;12.88;;
6434;SDS011;3250;42.694;23.278;2022-08-30T05:49:13;24.10;;;14.93;;
6434;SDS011;3250;42.694;23.278;2022-08-30T05:51:39;29.85;;;18.77;;
6434;SDS011;3250;42.694;23.278;2022-08-30T05:54:04;23.17;;;15.57;;
6434;SDS011;3250;42.694;23.278;2022-08-30T05:56:31;26.35;;;16.38;;
6434;SDS011;3250;42.694;23.278;2022-08-30T05:58:59;22.55;;;16.42;;
6434;SDS011;3250;42.694;23.278;2022-08-30T06:03:52;21.95;;;12.85;;
6434;SDS011;3250;42.694;23.278;2022-08-30T06:06:19;23.55;;;13.80;;
6434;SDS011;3250;42.694;23.278;2022-08-30T06:08:45;21.95;;;12.75;;
6434;SDS011;3250;42.694;23.278;2022-08-30T06:11:12;24.55;;;13.45;;
6434;SDS011;3250;42.694;23.278;2022-08-30T06:13:40;26.58;;;13.07;;
6434;SDS011;3250;42.694;23.278;2022-08-30T06:16:06;28.25;;;17.48;;
6434;SDS011;3250;42.694;23.278;2022-08-30T06:18:32;25.67;;;15.05;;
6434;SDS011;3250;42.694;23.278;2022-08-30T06:20:57;25.25;;;15.80;;
6434;SDS011;3250;42.694;23.278;2022-08-30T06:23:23;22.90;;;12.70;;
6434;SDS011;3250;42.694;23.278;2022-08-30T06:25:48;32.05;;;14.07;;
6434;SDS011;3250;42.694;23.278;2022-08-30T06:28:14;21.75;;;13.40;;
6434;SDS011;3250;42.694;23.278;2022-08-30T06:30:40;23.67;;;15.05;;
6434;SDS011;3250;42.694;23.278;2022-08-30T06:33:07;28.15;;;18.58;;
6434;SDS011;3250;42.694;23.278;2022-08-30T06:35:32;31.52;;;19.95;;
6434;SDS011;3250;42.694;23.278;2022-08-30T06:37:58;28.10;;;17.90;;
6434;SDS011;3250;42.694;23.278;2022-08-30T06:40:24;19.13;;;13.52;;
6434;SDS011;3250;42.694;23.278;2022-08-30T06:42:49;17.45;;;12.90;;
6434;SDS011;3250;42.694;23.278;2022-08-30T06:45:15;23.67;;;15.70;;
6434;SDS011;3250;42.694;23.278;2022-08-30T06:47:42;18.80;;;13.10;;
6434;SDS011;3250;42.694;23.278;2022-08-30T06:50:08;16.50;;;12.43;;
6434;SDS011;3250;42.694;23.278;2022-08-30T06:52:35;23.10;;;14.98;;
6434;SDS011;3250;42.694;23.278;2022-08-30T06:55:00;17.00;;;12.48;;
6434;SDS011;3250;42.694;23.278;2022-08-30T06:57:26;17.92;;;12.00;;
6434;SDS011;3250;42.694;23.278;2022-08-30T06:59:55;19.42;;;13.52;;
6434;SDS011;3250;42.694;23.278;2022-08-30T07:02:21;33.20;;;13.63;;
6434;SDS011;3250;42.694;23.278;2022-08-30T07:04:47;19.23;;;12.98;;
6434;SDS011;3250;42.694;23.278;2022-08-30T07:07:12;19.52;;;12.63;;
6434;SDS011;3250;42.694;23.278;2022-08-30T07:09:38;19.95;;;13.55;;
6434;SDS011;3250;42.694;23.278;2022-08-30T07:12:07;21.70;;;14.07;;
6434;SDS011;3250;42.694;23.278;2022-08-30T07:14:36;24.45;;;14.30;;
6434;SDS011;3250;42.694;23.278;2022-08-30T07:17:03;35.63;;;15.73;;
6434;SDS011;3250;42.694;23.278;2022-08-30T07:19:52;27.48;;;15.60;;
6434;SDS011;3250;42.694;23.278;2022-08-30T07:22:17;22.17;;;14.50;;
6434;SDS011;3250;42.694;23.278;2022-08-30T07:24:43;20.77;;;14.77;;
6434;SDS011;3250;42.694;23.278;2022-08-30T07:27:08;21.13;;;13.25;;
6434;SDS011;3250;42.694;23.278;2022-08-30T07:29:34;21.23;;;13.50;;
6434;SDS011;3250;42.694;23.278;2022-08-30T07:31:59;18.38;;;13.50;;
6434;SDS011;3250;42.694;23.278;2022-08-30T07:34:25;24.58;;;13.15;;
6434;SDS011;3250;42.694;23.278;2022-08-30T07:36:51;16.23;;;12.63;;
6434;SDS011;3250;42.694;23.278;2022-08-30T07:39:17;15.73;;;11.90;;
6434;SDS011;3250;42.694;23.278;2022-08-30T07:41:42;15.50;;;11.90;;
6434;SDS011;3250;42.694;23.278;2022-08-30T07:44:08;17.88;;;11.68;;
6434;SDS011;3250;42.694;23.278;2022-08-30T07:46:34;14.35;;;11.77;;
6434;SDS011;3250;42.694;23.278;2022-08-30T07:49:02;17.00;;;12.25;;
6434;SDS011;3250;42.694;23.278;2022-08-30T07:51:28;22.30;;;14.27;;
6434;SDS011;3250;42.694;23.278;2022-08-30T07:53:54;20.42;;;14.73;;
6434;SDS011;3250;42.694;23.278;2022-08-30T07:56:20;20.20;;;13.80;;
6434;SDS011;3250;42.694;23.278;2022-08-30T07:58:46;14.40;;;11.95;;
6434;SDS011;3250;42.694;23.278;2022-08-30T08:01:12;17.15;;;11.60;;
6434;SDS011;3250;42.694;23.278;2022-08-30T08:03:39;14.27;;;11.32;;
6434;SDS011;3250;42.694;23.278;2022-08-30T08:06:06;17.38;;;11.80;;
6434;SDS011;3250;42.694;23.278;2022-08-30T08:08:33;17.50;;;12.73;;
6434;SDS011;3250;42.694;23.278;2022-08-30T08:11:07;28.20;;;17.38;;
6434;SDS011;3250;42.694;23.278;2022-08-30T08:13:34;28.33;;;19.30;;
6434;SDS011;3250;42.694;23.278;2022-08-30T08:16:00;22.48;;;16.08;;
6434;SDS011;3250;42.694;23.278;2022-08-30T08:18:26;24.13;;;12.98;;
6434;SDS011;3250;42.694;23.278;2022-08-30T08:20:51;26.55;;;14.48;;
6434;SDS011;3250;42.694;23.278;2022-08-30T08:23:17;24.20;;;14.48;;
6434;SDS011;3250;42.694;23.278;2022-08-30T08:25:42;18.60;;;13.38;;
6434;SDS011;3250;42.694;23.278;2022-08-30T08:28:08;19.70;;;13.20;;
6434;SDS011;3250;42.694;23.278;2022-08-30T08:30:34;22.60;;;13.27;;
6434;SDS011;3250;42.694;23.278;2022-08-30T08:33:01;20.75;;;13.57;;
6434;SDS011;3250;42.694;23.278;2022-08-30T08:35:27;18.20;;;12.15;;
6434;SDS011;3250;42.694;23.278;2022-08-30T08:37:53;21.85;;;11.93;;
6434;SDS011;3250;42.694;23.278;2022-08-30T08:40:19;20.35;;;13.70;;
6434;SDS011;3250;42.694;23.278;2022-08-30T08:42:50;17.05;;;12.02;;
6434;SDS011;3250;42.694;23.278;2022-08-30T08:48:26;21.08;;;12.52;;
6434;SDS011;3250;42.694;23.278;2022-08-30T08:50:57;16.33;;;10.43;;
6434;SDS011;3250;42.694;23.278;2022-08-30T08:53:43;17.10;;;11.45;;
6434;SDS011;3250;42.694;23.278;2022-08-30T08:56:15;18.27;;;12.05;;
6434;SDS011;3250;42.694;23.278;2022-08-30T08:58:49;18.10;;;12.23;;
6434;SDS011;3250;42.694;23.278;2022-08-30T09:01:23;17.17;;;12.40;;
6434;SDS011;3250;42.694;23.278;2022-08-30T09:03:54;19.42;;;13.73;;
6434;SDS011;3250;42.694;23.278;2022-08-30T09:09:22;24.48;;;17.55;;
6434;SDS011;3250;42.694;23.278;2022-08-30T09:11:51;22.63;;;14.50;;
6434;SDS011;3250;42.694;23.278;2022-08-30T09:14:28;21.98;;;14.43;;
6434;SDS011;3250;42.694;23.278;2022-08-30T09:19:30;20.63;;;14.35;;
6434;SDS011;3250;42.694;23.278;2022-08-30T09:22:12;22.13;;;12.77;;
6434;SDS011;3250;42.694;23.278;2022-08-30T09:24:45;21.00;;;14.75;;
6434;SDS011;3250;42.694;23.278;2022-08-30T09:29:53;17.73;;;13.32;;
6434;SDS011;3250;42.694;23.278;2022-08-30T09:32:22;24.42;;;13.88;;
6434;SDS011;3250;42.694;23.278;2022-08-30T09:34:51;19.58;;;13.73;;
6434;SDS011;3250;42.694;23.278;2022-08-30T09:37:22;20.75;;;13.02;;
6434;SDS011;3250;42.694;23.278;2022-08-30T09:39:50;27.52;;;20.38;;
6434;SDS011;3250;42.694;23.278;2022-08-30T09:42:20;20.08;;;14.02;;
6434;SDS011;3250;42.694;23.278;2022-08-30T09:44:49;18.25;;;14.18;;
6434;SDS011;3250;42.694;23.278;2022-08-30T09:47:19;15.40;;;11.10;;
6434;SDS011;3250;42.694;23.278;2022-08-30T09:49:50;18.05;;;12.35;;
6434;SDS011;3250;42.694;23.278;2022-08-30T09:52:44;22.25;;;13.85;;
6434;SDS011;3250;42.694;23.278;2022-08-30T10:00:56;15.88;;;11.30;;
6434;SDS011;3250;42.694;23.278;2022-08-30T10:06:49;17.83;;;11.20;;
6434;SDS011;3250;42.694;23.278;2022-08-30T10:15:05;23.63;;;11.95;;
6434;SDS011;3250;42.694;23.278;2022-08-30T10:20:25;24.30;;;13.73;;
6434;SDS011;3250;42.694;23.278;2022-08-30T10:23:01;20.33;;;14.77;;
6434;SDS011;3250;42.694;23.278;2022-08-30T10:25:44;32.05;;;14.32;;
6434;SDS011;3250;42.694;23.278;2022-08-30T10:28:30;26.80;;;15.43;;
6434;SDS011;3250;42.694;23.278;2022-08-30T10:31:04;22.85;;;13.93;;
6434;SDS011;3250;42.694;23.278;2022-08-30T10:33:34;21.85;;;14.00;;
6434;SDS011;3250;42.694;23.278;2022-08-30T10:36:13;19.95;;;12.88;;
6434;SDS011;3250;42.694;23.278;2022-08-30T10:38:40;20.52;;;13.43;;
6434;SDS011;3250;42.694;23.278;2022-08-30T10:41:24;20.65;;;13.80;;
6434;SDS011;3250;42.694;23.278;2022-08-30T10:44:02;17.95;;;11.52;;
6434;SDS011;3250;42.694;23.278;2022-08-30T10:46:38;22.90;;;14.65;;
6434;SDS011;3250;42.694;23.278;2022-08-30T10:49:19;18.13;;;11.68;;
6434;SDS011;3250;42.694;23.278;2022-08-30T10:56:55;19.38;;;11.60;;
6434;SDS011;3250;42.694;23.278;2022-08-30T10:59:21;20.60;;;11.70;;
6434;SDS011;3250;42.694;23.278;2022-08-30T11:04:53;22.92;;;11.93;;
6434;SDS011;3250;42.694;23.278;2022-08-30T11:10:17;17.70;;;11.43;;
6434;SDS011;3250;42.694;23.278;2022-08-30T11:12:59;16.98;;;10.50;;
6434;SDS011;3250;42.694;23.278;2022-08-30T11:15:31;23.92;;;11.57;;
6434;SDS011;3250;42.694;23.278;2022-08-30T11:20:30;18.17;;;10.90;;
6434;SDS011;3250;42.694;23.278;2022-08-30T11:23:29;14.45;;;10.93;;
6434;SDS011;3250;42.694;23.278;2022-08-30T11:34:02;21.33;;;11.02;;
6434;SDS011;3250;42.694;23.278;2022-08-30T11:46:49;19.85;;;10.40;;
6434;SDS011;3250;42.694;23.278;2022-08-30T12:00:10;22.48;;;9.82;;
6434;SDS011;3250;42.694;23.278;2022-08-30T12:10:47;12.50;;;8.20;;
6434;SDS011;3250;42.694;23.278;2022-08-30T12:16:02;11.73;;;7.82;;
6434;SDS011;3250;42.694;23.278;2022-08-30T12:18:50;14.80;;;8.90;;
6434;SDS011;3250;42.694;23.278;2022-08-30T12:26:48;11.93;;;7.38;;
6434;SDS011;3250;42.694;23.278;2022-08-30T12:34:30;11.32;;;7.78;;
6434;SDS011;3250;42.694;23.278;2022-08-30T12:37:03;16.63;;;7.55;;
6434;SDS011;3250;42.694;23.278;2022-08-30T12:39:31;14.20;;;8.13;;
6434;SDS011;3250;42.694;23.278;2022-08-30T12:44:52;11.52;;;7.60;;
6434;SDS011;3250;42.694;23.278;2022-08-30T12:47:29;8.60;;;7.40;;
6434;SDS011;3250;42.694;23.278;2022-08-30T12:50:06;12.35;;;7.50;;
6434;SDS011;3250;42.694;23.278;2022-08-30T12:52:35;14.25;;;8.25;;
6434;SDS011;3250;42.694;23.278;2022-08-30T12:58:32;12.65;;;8.07;;
6434;SDS011;3250;42.694;23.278;2022-08-30T13:00:37;14.77;;;8.25;;
6434;SDS011;3250;42.694;23.278;2022-08-30T13:03:05;13.95;;;8.77;;
6434;SDS011;3250;42.694;23.278;2022-08-30T13:05:52;14.88;;;8.95;;
6434;SDS011;3250;42.694;23.278;2022-08-30T13:08:36;14.88;;;8.57;;
6434;SDS011;3250;42.694;23.278;2022-08-30T13:11:22;11.82;;;8.05;;
6434;SDS011;3250;42.694;23.278;2022-08-30T13:13:51;11.10;;;8.13;;
6434;SDS011;3250;42.694;23.278;2022-08-30T13:18:45;12.30;;;8.40;;
6434;SDS011;3250;42.694;23.278;2022-08-30T13:21:30;16.80;;;7.88;;
6434;SDS011;3250;42.694;23.278;2022-08-30T13:24:03;11.43;;;8.27;;
6434;SDS011;3250;42.694;23.278;2022-08-30T13:26:36;10.00;;;7.82;;
6434;SDS011;3250;42.694;23.278;2022-08-30T13:29:04;17.80;;;8.35;;
6434;SDS011;3250;42.694;23.278;2022-08-30T13:31:30;13.05;;;7.78;;
6434;SDS011;3250;42.694;23.278;2022-08-30T13:33:57;11.63;;;8.05;;
6434;SDS011;3250;42.694;23.278;2022-08-30T13:36:28;13.45;;;8.40;;
6434;SDS011;3250;42.694;23.278;2022-08-30T13:38:56;13.77;;;8.20;;
6434;SDS011;3250;42.694;23.278;2022-08-30T13:41:23;14.98;;;8.07;;
6434;SDS011;3250;42.694;23.278;2022-08-30T13:43:49;18.73;;;9.00;;
6434;SDS011;3250;42.694;23.278;2022-08-30T13:46:15;13.30;;;9.30;;
6434;SDS011;3250;42.694;23.278;2022-08-30T13:48:41;15.05;;;9.60;;
6434;SDS011;3250;42.694;23.278;2022-08-30T13:51:07;14.45;;;8.80;;
6434;SDS011;3250;42.694;23.278;2022-08-30T13:53:33;14.00;;;8.32;;
6434;SDS011;3250;42.694;23.278;2022-08-30T13:55:59;19.63;;;12.13;;
6434;SDS011;3250;42.694;23.278;2022-08-30T13:58:26;17.25;;;11.55;;
6434;SDS011;3250;42.694;23.278;2022-08-30T14:00:52;15.27;;;10.77;;
6434;SDS011;3250;42.694;23.278;2022-08-30T14:03:18;15.82;;;8.73;;
6434;SDS011;3250;42.694;23.278;2022-08-30T14:05:43;15.25;;;9.00;;
6434;SDS011;3250;42.694;23.278;2022-08-30T14:08:10;13.18;;;8.43;;
6434;SDS011;3250;42.694;23.278;2022-08-30T14:10:37;19.05;;;9.57;;
6434;SDS011;3250;42.694;23.278;2022-08-30T14:13:04;11.60;;;8.68;;
6434;SDS011;3250;42.694;23.278;2022-08-30T14:15:29;10.93;;;8.73;;
6434;SDS011;3250;42.694;23.278;2022-08-30T14:17:56;14.80;;;8.77;;
6434;SDS011;3250;42.694;23.278;2022-08-30T14:20:21;18.73;;;9.10;;
6434;SDS011;3250;42.694;23.278;2022-08-30T14:22:46;12.35;;;8.90;;
6434;SDS011;3250;42.694;23.278;2022-08-30T14:25:12;16.13;;;9.18;;
6434;SDS011;3250;42.694;23.278;2022-08-30T14:27:37;13.70;;;9.43;;
6434;SDS011;3250;42.694;23.278;2022-08-30T14:30:03;16.08;;;8.63;;
6434;SDS011;3250;42.694;23.278;2022-08-30T14:32:30;14.13;;;8.23;;
6434;SDS011;3250;42.694;23.278;2022-08-30T14:34:55;11.52;;;8.93;;
6434;SDS011;3250;42.694;23.278;2022-08-30T14:37:21;16.38;;;9.25;;
6434;SDS011;3250;42.694;23.278;2022-08-30T14:39:46;12.48;;;8.60;;
6434;SDS011;3250;42.694;23.278;2022-08-30T14:42:12;14.45;;;8.48;;
6434;SDS011;3250;42.694;23.278;2022-08-30T14:44:37;12.48;;;8.80;;
6434;SDS011;3250;42.694;23.278;2022-08-30T14:47:03;13.25;;;8.52;;
6434;SDS011;3250;42.694;23.278;2022-08-30T14:49:29;12.50;;;8.52;;
6434;SDS011;3250;42.694;23.278;2022-08-30T14:51:55;10.95;;;8.38;;
6434;SDS011;3250;42.694;23.278;2022-08-30T14:54:22;19.52;;;9.07;;
6434;SDS011;3250;42.694;23.278;2022-08-30T14:56:49;14.00;;;8.98;;
6434;SDS011;3250;42.694;23.278;2022-08-30T14:59:15;14.73;;;8.90;;
6434;SDS011;3250;42.694;23.278;2022-08-30T15:01:42;15.43;;;9.38;;
6434;SDS011;3250;42.694;23.278;2022-08-30T15:04:08;12.90;;;8.38;;
6434;SDS011;3250;42.694;23.278;2022-08-30T15:06:36;16.73;;;9.13;;
6434;SDS011;3250;42.694;23.278;2022-08-30T15:09:03;13.57;;;8.90;;
6434;SDS011;3250;42.694;23.278;2022-08-30T15:11:31;14.60;;;9.32;;
6434;SDS011;3250;42.694;23.278;2022-08-30T15:13:56;12.60;;;8.75;;
6434;SDS011;3250;42.694;23.278;2022-08-30T15:16:23;15.40;;;8.63;;
6434;SDS011;3250;42.694;23.278;2022-08-30T15:18:51;16.10;;;8.73;;
6434;SDS011;3250;42.694;23.278;2022-08-30T15:21:23;20.17;;;9.40;;
6434;SDS011;3250;42.694;23.278;2022-08-30T15:23:52;14.40;;;9.52;;
6434;SDS011;3250;42.694;23.278;2022-08-30T15:26:19;13.73;;;8.35;;
6434;SDS011;3250;42.694;23.278;2022-08-30T15:28:45;14.73;;;8.55;;
6434;SDS011;3250;42.694;23.278;2022-08-30T15:31:11;23.25;;;12.77;;
6434;SDS011;3250;42.694;23.278;2022-08-30T15:33:37;25.10;;;14.77;;
6434;SDS011;3250;42.694;23.278;2022-08-30T15:36:03;16.65;;;9.75;;
6434;SDS011;3250;42.694;23.278;2022-08-30T15:38:30;15.68;;;9.95;;
6434;SDS011;3250;42.694;23.278;2022-08-30T15:40:55;25.88;;;10.15;;
6434;SDS011;3250;42.694;23.278;2022-08-30T15:43:26;15.90;;;8.88;;
6434;SDS011;3250;42.694;23.278;2022-08-30T15:45:52;14.13;;;9.70;;
6434;SDS011;3250;42.694;23.278;2022-08-30T15:48:18;12.52;;;8.93;;
6434;SDS011;3250;42.694;23.278;2022-08-30T15:50:44;20.25;;;10.32;;
6434;SDS011;3250;42.694;23.278;2022-08-30T15:53:09;19.80;;;9.40;;
6434;SDS011;3250;42.694;23.278;2022-08-30T15:55:35;17.08;;;9.52;;
6434;SDS011;3250;42.694;23.278;2022-08-30T15:58:00;14.38;;;9.07;;
6434;SDS011;3250;42.694;23.278;2022-08-30T16:00:26;15.82;;;9.45;;
6434;SDS011;3250;42.694;23.278;2022-08-30T16:02:51;16.10;;;9.20;;
6434;SDS011;3250;42.694;23.278;2022-08-30T16:05:17;15.93;;;11.13;;
6434;SDS011;3250;42.694;23.278;2022-08-30T16:07:43;19.15;;;14.07;;
6434;SDS011;3250;42.694;23.278;2022-08-30T16:10:11;17.42;;;10.40;;
6434;SDS011;3250;42.694;23.278;2022-08-30T16:12:37;18.52;;;11.65;;
6434;SDS011;3250;42.694;23.278;2022-08-30T16:15:03;19.52;;;11.85;;
6434;SDS011;3250;42.694;23.278;2022-08-30T16:17:29;22.73;;;13.25;;
6434;SDS011;3250;42.694;23.278;2022-08-30T16:19:54;24.38;;;12.43;;
6434;SDS011;3250;42.694;23.278;2022-08-30T16:22:19;23.00;;;11.50;;
6434;SDS011;3250;42.694;23.278;2022-08-30T16:24:46;37.28;;;22.25;;
6434;SDS011;3250;42.694;23.278;2022-08-30T16:27:11;20.92;;;13.40;;